sensor_id;sensor_type;location;lat;lon;timestamp;temperature;humidity
22623;DHT22;11478;51.094;7.030;2023-05-19T00:00:57;7.80;99.90
22623;DHT22;11478;51.094;7.030;2023-05-19T00:03:24;7.80;99.90
22623;DHT22;11478;51.094;7.030;2023-05-19T00:05:55;7.70;99.90
22623;DHT22;11478;51.094;7.030;2023-05-19T00:08:29;7.60;99.90
22623;DHT22;11478;51.094;7.030;2023-05-19T00:10:56;7.60;99.90
22623;DHT22;11478;51.094;7.030;2023-05-19T00:13:37;7.50;99.90
22623;DHT22;11478;51.094;7.030;2023-05-19T00:16:03;7.50;99.90
22623;DHT22;11478;51.094;7.030;2023-05-19T00:18:31;7.40;99.90
22623;DHT22;11478;51.094;7.030;2023-05-19T00:20:57;7.40;99.90
22623;DHT22;11478;51.094;7.030;2023-05-19T00:23:23;7.30;99.90
22623;DHT22;11478;51.094;7.030;2023-05-19T00:25:49;7.30;99.90
22623;DHT22;11478;51.094;7.030;2023-05-19T00:28:16;7.20;99.90
22623;DHT22;11478;51.094;7.030;2023-05-19T00:30:42;7.20;99.90
22623;DHT22;11478;51.094;7.030;2023-05-19T00:33:09;7.20;99.90
22623;DHT22;11478;51.094;7.030;2023-05-19T00:35:35;7.10;99.90
22623;DHT22;11478;51.094;7.030;2023-05-19T00:38:02;7.00;99.90
22623;DHT22;11478;51.094;7.030;2023-05-19T00:40:29;7.00;99.90
22623;DHT22;11478;51.094;7.030;2023-05-19T00:42:55;7.10;99.90
22623;DHT22;11478;51.094;7.030;2023-05-19T00:45:21;7.10;99.90
22623;DHT22;11478;51.094;7.030;2023-05-19T00:47:49;7.00;99.90
22623;DHT22;11478;51.094;7.030;2023-05-19T00:50:15;7.00;99.90
22623;DHT22;11478;51.094;7.030;2023-05-19T00:52:42;6.90;99.90
22623;DHT22;11478;51.094;7.030;2023-05-19T00:55:09;6.80;99.90
22623;DHT22;11478;51.094;7.030;2023-05-19T00:57:38;6.80;99.90
22623;DHT22;11478;51.094;7.030;2023-05-19T01:00:04;6.80;99.90
22623;DHT22;11478;51.094;7.030;2023-05-19T01:02:31;6.70;99.90
22623;DHT22;11478;51.094;7.030;2023-05-19T01:04:57;6.70;99.90
22623;DHT22;11478;51.094;7.030;2023-05-19T01:07:30;6.80;99.90
22623;DHT22;11478;51.094;7.030;2023-05-19T01:09:56;6.80;99.90
22623;DHT22;11478;51.094;7.030;2023-05-19T01:12:24;6.70;99.90
22623;DHT22;11478;51.094;7.030;2023-05-19T01:14:50;6.70;99.90
22623;DHT22;11478;51.094;7.030;2023-05-19T01:20:35;6.70;99.90
22623;DHT22;11478;51.094;7.030;2023-05-19T01:31:23;6.60;99.90
22623;DHT22;11478;51.094;7.030;2023-05-19T01:33:52;6.60;99.90
22623;DHT22;11478;51.094;7.030;2023-05-19T01:36:20;6.50;99.90
22623;DHT22;11478;51.094;7.030;2023-05-19T01:38:55;6.50;99.90
22623;DHT22;11478;51.094;7.030;2023-05-19T01:41:21;6.40;99.90
22623;DHT22;11478;51.094;7.030;2023-05-19T01:43:48;6.40;99.90
22623;DHT22;11478;51.094;7.030;2023-05-19T01:46:15;6.40;99.90
22623;DHT22;11478;51.094;7.030;2023-05-19T01:48:46;6.30;99.90
22623;DHT22;11478;51.094;7.030;2023-05-19T01:51:12;6.30;99.90
22623;DHT22;11478;51.094;7.030;2023-05-19T01:53:39;6.30;99.90
22623;DHT22;11478;51.094;7.030;2023-05-19T01:56:05;6.30;99.90
22623;DHT22;11478;51.094;7.030;2023-05-19T01:58:48;6.20;99.90
22623;DHT22;11478;51.094;7.030;2023-05-19T02:02:09;6.10;99.90
22623;DHT22;11478;51.094;7.030;2023-05-19T02:04:42;6.10;99.90
22623;DHT22;11478;51.094;7.030;2023-05-19T02:07:43;6.10;99.90
22623;DHT22;11478;51.094;7.030;2023-05-19T02:10:24;6.10;99.90
22623;DHT22;11478;51.094;7.030;2023-05-19T02:12:53;6.00;99.90
22623;DHT22;11478;51.094;7.030;2023-05-19T02:15:23;6.00;99.90
22623;DHT22;11478;51.094;7.030;2023-05-19T02:17:54;5.90;99.90
22623;DHT22;11478;51.094;7.030;2023-05-19T02:20:22;6.00;99.90
22623;DHT22;11478;51.094;7.030;2023-05-19T02:22:49;5.90;99.90
22623;DHT22;11478;51.094;7.030;2023-05-19T02:25:15;5.90;99.90
22623;DHT22;11478;51.094;7.030;2023-05-19T02:27:41;5.90;99.90
22623;DHT22;11478;51.094;7.030;2023-05-19T02:30:07;5.90;99.90
22623;DHT22;11478;51.094;7.030;2023-05-19T02:32:34;5.80;99.90
22623;DHT22;11478;51.094;7.030;2023-05-19T02:35:02;5.80;99.90
22623;DHT22;11478;51.094;7.030;2023-05-19T02:37:28;5.70;99.90
22623;DHT22;11478;51.094;7.030;2023-05-19T02:39:55;5.70;99.90
22623;DHT22;11478;51.094;7.030;2023-05-19T02:42:21;5.70;99.90
22623;DHT22;11478;51.094;7.030;2023-05-19T02:44:55;5.70;99.90
22623;DHT22;11478;51.094;7.030;2023-05-19T02:47:21;5.70;99.90
22623;DHT22;11478;51.094;7.030;2023-05-19T02:50:01;5.70;99.90
22623;DHT22;11478;51.094;7.030;2023-05-19T02:52:27;5.70;99.90
22623;DHT22;11478;51.094;7.030;2023-05-19T02:55:00;5.60;99.90
22623;DHT22;11478;51.094;7.030;2023-05-19T02:57:28;5.60;99.90
22623;DHT22;11478;51.094;7.030;2023-05-19T02:59:59;5.60;99.90
22623;DHT22;11478;51.094;7.030;2023-05-19T03:02:25;5.60;99.90
22623;DHT22;11478;51.094;7.030;2023-05-19T03:04:53;5.50;99.90
22623;DHT22;11478;51.094;7.030;2023-05-19T03:07:19;5.40;99.90
22623;DHT22;11478;51.094;7.030;2023-05-19T03:09:51;5.40;99.90
22623;DHT22;11478;51.094;7.030;2023-05-19T03:12:17;5.30;99.90
22623;DHT22;11478;51.094;7.030;2023-05-19T03:14:43;5.30;99.90
22623;DHT22;11478;51.094;7.030;2023-05-19T03:17:09;5.30;99.90
22623;DHT22;11478;51.094;7.030;2023-05-19T03:19:36;5.30;99.90
22623;DHT22;11478;51.094;7.030;2023-05-19T03:22:02;5.40;99.90
22623;DHT22;11478;51.094;7.030;2023-05-19T03:24:29;5.40;99.90
22623;DHT22;11478;51.094;7.030;2023-05-19T03:26:55;5.40;99.90
22623;DHT22;11478;51.094;7.030;2023-05-19T03:29:22;5.40;99.90
22623;DHT22;11478;51.094;7.030;2023-05-19T03:31:48;5.50;99.90
22623;DHT22;11478;51.094;7.030;2023-05-19T03:34:24;5.50;99.90
22623;DHT22;11478;51.094;7.030;2023-05-19T03:36:54;5.50;99.90
22623;DHT22;11478;51.094;7.030;2023-05-19T03:39:20;5.50;99.90
22623;DHT22;11478;51.094;7.030;2023-05-19T03:41:47;5.50;99.90
22623;DHT22;11478;51.094;7.030;2023-05-19T03:44:13;5.50;99.90
22623;DHT22;11478;51.094;7.030;2023-05-19T03:46:43;5.50;99.90
22623;DHT22;11478;51.094;7.030;2023-05-19T03:49:09;5.50;99.90
22623;DHT22;11478;51.094;7.030;2023-05-19T03:51:46;5.50;99.90
22623;DHT22;11478;51.094;7.030;2023-05-19T03:54:12;5.60;99.90
22623;DHT22;11478;51.094;7.030;2023-05-19T03:56:40;5.60;99.90
22623;DHT22;11478;51.094;7.030;2023-05-19T03:59:07;5.60;99.90
22623;DHT22;11478;51.094;7.030;2023-05-19T04:01:35;5.60;99.90
22623;DHT22;11478;51.094;7.030;2023-05-19T04:04:01;5.60;99.90
22623;DHT22;11478;51.094;7.030;2023-05-19T04:06:27;5.60;99.90
22623;DHT22;11478;51.094;7.030;2023-05-19T04:08:53;5.60;99.90
22623;DHT22;11478;51.094;7.030;2023-05-19T04:11:27;5.60;99.90
22623;DHT22;11478;51.094;7.030;2023-05-19T04:13:53;5.60;99.90
22623;DHT22;11478;51.094;7.030;2023-05-19T04:16:20;5.60;99.90
22623;DHT22;11478;51.094;7.030;2023-05-19T04:18:46;5.70;99.90
22623;DHT22;11478;51.094;7.030;2023-05-19T04:21:23;5.70;99.90
22623;DHT22;11478;51.094;7.030;2023-05-19T04:23:49;5.70;99.90
22623;DHT22;11478;51.094;7.030;2023-05-19T04:26:22;5.70;99.90
22623;DHT22;11478;51.094;7.030;2023-05-19T04:28:49;5.70;99.90
22623;DHT22;11478;51.094;7.030;2023-05-19T04:31:15;5.80;99.90
22623;DHT22;11478;51.094;7.030;2023-05-19T04:33:41;5.80;99.90
22623;DHT22;11478;51.094;7.030;2023-05-19T04:36:08;5.80;99.90
22623;DHT22;11478;51.094;7.030;2023-05-19T04:38:49;5.80;99.90
22623;DHT22;11478;51.094;7.030;2023-05-19T04:41:32;5.80;99.90
22623;DHT22;11478;51.094;7.030;2023-05-19T04:44:06;5.90;99.90
22623;DHT22;11478;51.094;7.030;2023-05-19T04:46:35;5.90;99.90
22623;DHT22;11478;51.094;7.030;2023-05-19T04:49:05;5.90;99.90
22623;DHT22;11478;51.094;7.030;2023-05-19T04:51:32;6.00;99.90
22623;DHT22;11478;51.094;7.030;2023-05-19T04:54:04;6.00;99.90
22623;DHT22;11478;51.094;7.030;2023-05-19T04:56:30;6.10;99.90
22623;DHT22;11478;51.094;7.030;2023-05-19T04:59:06;6.10;99.90
22623;DHT22;11478;51.094;7.030;2023-05-19T05:01:34;6.20;99.90
22623;DHT22;11478;51.094;7.030;2023-05-19T05:04:07;6.30;99.90
22623;DHT22;11478;51.094;7.030;2023-05-19T05:06:32;6.40;99.90
22623;DHT22;11478;51.094;7.030;2023-05-19T05:09:05;6.40;99.90
22623;DHT22;11478;51.094;7.030;2023-05-19T05:11:31;6.50;99.90
22623;DHT22;11478;51.094;7.030;2023-05-19T05:13:57;6.50;99.90
22623;DHT22;11478;51.094;7.030;2023-05-19T05:16:23;6.60;99.90
22623;DHT22;11478;51.094;7.030;2023-05-19T05:18:51;6.70;99.90
22623;DHT22;11478;51.094;7.030;2023-05-19T05:21:20;6.80;99.90
22623;DHT22;11478;51.094;7.030;2023-05-19T05:23:51;6.90;99.90
22623;DHT22;11478;51.094;7.030;2023-05-19T05:26:21;7.00;99.90
22623;DHT22;11478;51.094;7.030;2023-05-19T05:28:58;7.10;99.90
22623;DHT22;11478;51.094;7.030;2023-05-19T05:31:24;7.10;99.90
22623;DHT22;11478;51.094;7.030;2023-05-19T05:33:53;7.20;99.90
22623;DHT22;11478;51.094;7.030;2023-05-19T05:36:20;7.30;99.90
22623;DHT22;11478;51.094;7.030;2023-05-19T05:38:45;7.40;99.90
22623;DHT22;11478;51.094;7.030;2023-05-19T05:41:12;7.50;99.90
22623;DHT22;11478;51.094;7.030;2023-05-19T05:43:38;7.60;99.90
22623;DHT22;11478;51.094;7.030;2023-05-19T05:46:06;7.70;99.90
22623;DHT22;11478;51.094;7.030;2023-05-19T05:48:32;7.80;99.90
22623;DHT22;11478;51.094;7.030;2023-05-19T05:51:05;7.90;99.90
22623;DHT22;11478;51.094;7.030;2023-05-19T05:53:35;8.00;99.90
22623;DHT22;11478;51.094;7.030;2023-05-19T05:56:02;8.20;99.90
22623;DHT22;11478;51.094;7.030;2023-05-19T05:58:28;8.30;99.90
22623;DHT22;11478;51.094;7.030;2023-05-19T06:00:54;8.30;99.90
22623;DHT22;11478;51.094;7.030;2023-05-19T06:03:22;8.40;99.90
22623;DHT22;11478;51.094;7.030;2023-05-19T06:05:51;8.60;99.90
22623;DHT22;11478;51.094;7.030;2023-05-19T06:08:17;8.70;99.90
22623;DHT22;11478;51.094;7.030;2023-05-19T06:10:45;8.80;99.90
22623;DHT22;11478;51.094;7.030;2023-05-19T06:13:11;9.00;99.90
22623;DHT22;11478;51.094;7.030;2023-05-19T06:15:38;9.10;99.90
22623;DHT22;11478;51.094;7.030;2023-05-19T06:18:04;9.30;99.90
22623;DHT22;11478;51.094;7.030;2023-05-19T06:20:34;9.40;99.90
22623;DHT22;11478;51.094;7.030;2023-05-19T06:23:01;9.60;99.90
22623;DHT22;11478;51.094;7.030;2023-05-19T06:25:27;9.70;99.90
22623;DHT22;11478;51.094;7.030;2023-05-19T06:27:53;9.90;99.90
22623;DHT22;11478;51.094;7.030;2023-05-19T06:30:25;10.00;99.90
22623;DHT22;11478;51.094;7.030;2023-05-19T06:32:51;10.10;99.90
22623;DHT22;11478;51.094;7.030;2023-05-19T06:35:19;10.30;99.90
22623;DHT22;11478;51.094;7.030;2023-05-19T06:37:45;10.40;99.90
22623;DHT22;11478;51.094;7.030;2023-05-19T06:40:12;10.50;99.90
22623;DHT22;11478;51.094;7.030;2023-05-19T06:42:38;10.70;99.90
22623;DHT22;11478;51.094;7.030;2023-05-19T06:45:08;11.00;99.90
22623;DHT22;11478;51.094;7.030;2023-05-19T06:47:34;11.30;99.90
22623;DHT22;11478;51.094;7.030;2023-05-19T06:50:04;11.50;99.90
22623;DHT22;11478;51.094;7.030;2023-05-19T06:52:29;11.70;99.90
22623;DHT22;11478;51.094;7.030;2023-05-19T06:55:03;11.80;99.90
22623;DHT22;11478;51.094;7.030;2023-05-19T06:57:29;12.00;99.90
22623;DHT22;11478;51.094;7.030;2023-05-19T06:59:59;12.30;99.90
22623;DHT22;11478;51.094;7.030;2023-05-19T07:02:25;12.60;99.90
22623;DHT22;11478;51.094;7.030;2023-05-19T07:04:52;12.70;99.90
22623;DHT22;11478;51.094;7.030;2023-05-19T07:07:20;12.80;99.90
22623;DHT22;11478;51.094;7.030;2023-05-19T07:09:50;12.90;99.90
22623;DHT22;11478;51.094;7.030;2023-05-19T07:12:16;13.00;99.90
22623;DHT22;11478;51.094;7.030;2023-05-19T07:14:44;13.10;99.90
22623;DHT22;11478;51.094;7.030;2023-05-19T07:17:10;13.20;99.90
22623;DHT22;11478;51.094;7.030;2023-05-19T07:19:38;13.30;99.90
22623;DHT22;11478;51.094;7.030;2023-05-19T07:22:04;13.40;99.90
22623;DHT22;11478;51.094;7.030;2023-05-19T07:24:30;13.50;99.90
22623;DHT22;11478;51.094;7.030;2023-05-19T07:26:56;13.70;99.90
22623;DHT22;11478;51.094;7.030;2023-05-19T07:29:44;13.80;99.90
22623;DHT22;11478;51.094;7.030;2023-05-19T07:32:10;13.90;99.90
22623;DHT22;11478;51.094;7.030;2023-05-19T07:34:36;14.10;99.90
22623;DHT22;11478;51.094;7.030;2023-05-19T07:37:03;14.20;99.90
22623;DHT22;11478;51.094;7.030;2023-05-19T07:39:29;14.40;99.90
22623;DHT22;11478;51.094;7.030;2023-05-19T07:42:05;14.40;99.90
22623;DHT22;11478;51.094;7.030;2023-05-19T07:44:31;14.50;99.90
22623;DHT22;11478;51.094;7.030;2023-05-19T07:46:57;14.60;99.90
22623;DHT22;11478;51.094;7.030;2023-05-19T07:49:22;14.60;99.90
22623;DHT22;11478;51.094;7.030;2023-05-19T07:51:50;14.80;99.90
22623;DHT22;11478;51.094;7.030;2023-05-19T07:54:16;14.80;99.90
22623;DHT22;11478;51.094;7.030;2023-05-19T07:56:45;14.90;99.90
22623;DHT22;11478;51.094;7.030;2023-05-19T07:59:11;15.00;99.90
22623;DHT22;11478;51.094;7.030;2023-05-19T08:01:54;15.10;99.90
22623;DHT22;11478;51.094;7.030;2023-05-19T08:04:19;15.10;99.90
22623;DHT22;11478;51.094;7.030;2023-05-19T08:06:58;15.20;99.90
22623;DHT22;11478;51.094;7.030;2023-05-19T08:09:24;15.30;99.90
22623;DHT22;11478;51.094;7.030;2023-05-19T08:11:52;15.30;99.90
22623;DHT22;11478;51.094;7.030;2023-05-19T08:14:18;15.40;99.90
22623;DHT22;11478;51.094;7.030;2023-05-19T08:16:53;15.50;99.90
22623;DHT22;11478;51.094;7.030;2023-05-19T08:19:20;15.60;99.90
22623;DHT22;11478;51.094;7.030;2023-05-19T08:21:48;15.70;99.90
22623;DHT22;11478;51.094;7.030;2023-05-19T08:24:14;15.70;99.90
22623;DHT22;11478;51.094;7.030;2023-05-19T08:26:42;15.80;99.90
22623;DHT22;11478;51.094;7.030;2023-05-19T08:29:11;15.80;99.90
22623;DHT22;11478;51.094;7.030;2023-05-19T08:31:40;15.90;99.90
22623;DHT22;11478;51.094;7.030;2023-05-19T08:34:06;16.00;99.90
22623;DHT22;11478;51.094;7.030;2023-05-19T08:36:33;16.00;99.90
22623;DHT22;11478;51.094;7.030;2023-05-19T08:39:05;16.10;99.90
22623;DHT22;11478;51.094;7.030;2023-05-19T08:41:31;16.10;99.90
22623;DHT22;11478;51.094;7.030;2023-05-19T08:43:57;16.10;99.90
22623;DHT22;11478;51.094;7.030;2023-05-19T08:46:24;16.10;99.90
22623;DHT22;11478;51.094;7.030;2023-05-19T08:49:11;16.10;99.90
22623;DHT22;11478;51.094;7.030;2023-05-19T08:54:14;15.90;99.90
22623;DHT22;11478;51.094;7.030;2023-05-19T08:56:44;16.00;99.90
22623;DHT22;11478;51.094;7.030;2023-05-19T08:59:19;16.00;99.90
22623;DHT22;11478;51.094;7.030;2023-05-19T09:01:46;15.90;99.90
22623;DHT22;11478;51.094;7.030;2023-05-19T09:04:15;16.00;99.90
22623;DHT22;11478;51.094;7.030;2023-05-19T09:06:42;16.10;99.90
22623;DHT22;11478;51.094;7.030;2023-05-19T09:09:09;16.20;99.90
22623;DHT22;11478;51.094;7.030;2023-05-19T09:11:35;16.30;99.90
22623;DHT22;11478;51.094;7.030;2023-05-19T09:14:04;16.30;99.90
22623;DHT22;11478;51.094;7.030;2023-05-19T09:16:30;16.30;99.90
22623;DHT22;11478;51.094;7.030;2023-05-19T09:19:00;16.30;99.90
22623;DHT22;11478;51.094;7.030;2023-05-19T09:21:30;16.30;99.90
22623;DHT22;11478;51.094;7.030;2023-05-19T09:24:06;16.40;99.90
22623;DHT22;11478;51.094;7.030;2023-05-19T09:26:41;16.50;99.90
22623;DHT22;11478;51.094;7.030;2023-05-19T09:29:16;16.50;99.90
22623;DHT22;11478;51.094;7.030;2023-05-19T09:31:50;16.50;99.90
22623;DHT22;11478;51.094;7.030;2023-05-19T09:34:19;16.60;99.90
22623;DHT22;11478;51.094;7.030;2023-05-19T09:36:58;16.80;99.90
22623;DHT22;11478;51.094;7.030;2023-05-19T09:39:24;17.00;99.90
22623;DHT22;11478;51.094;7.030;2023-05-19T09:41:54;17.10;99.90
22623;DHT22;11478;51.094;7.030;2023-05-19T09:44:25;17.20;99.90
22623;DHT22;11478;51.094;7.030;2023-05-19T09:46:58;17.20;99.90
22623;DHT22;11478;51.094;7.030;2023-05-19T09:49:45;17.20;99.90
22623;DHT22;11478;51.094;7.030;2023-05-19T09:52:14;17.20;99.90
22623;DHT22;11478;51.094;7.030;2023-05-19T09:54:48;17.30;99.90
22623;DHT22;11478;51.094;7.030;2023-05-19T09:57:16;17.40;99.90
22623;DHT22;11478;51.094;7.030;2023-05-19T09:59:55;17.60;99.90
22623;DHT22;11478;51.094;7.030;2023-05-19T10:02:22;17.70;99.90
22623;DHT22;11478;51.094;7.030;2023-05-19T10:04:51;17.70;99.90
22623;DHT22;11478;51.094;7.030;2023-05-19T10:07:18;17.80;99.90
22623;DHT22;11478;51.094;7.030;2023-05-19T10:09:48;17.80;99.90
22623;DHT22;11478;51.094;7.030;2023-05-19T10:12:15;18.00;99.40
22623;DHT22;11478;51.094;7.030;2023-05-19T10:14:42;18.00;99.10
22623;DHT22;11478;51.094;7.030;2023-05-19T10:17:08;18.10;99.90
22623;DHT22;11478;51.094;7.030;2023-05-19T10:19:43;18.20;99.50
22623;DHT22;11478;51.094;7.030;2023-05-19T10:22:09;18.30;99.90
22623;DHT22;11478;51.094;7.030;2023-05-19T10:24:35;18.20;97.70
22623;DHT22;11478;51.094;7.030;2023-05-19T10:27:04;18.10;96.90
22623;DHT22;11478;51.094;7.030;2023-05-19T10:29:36;18.00;99.50
22623;DHT22;11478;51.094;7.030;2023-05-19T10:32:09;18.00;99.80
22623;DHT22;11478;51.094;7.030;2023-05-19T10:46:35;18.10;98.90
22623;DHT22;11478;51.094;7.030;2023-05-19T10:49:01;18.10;99.30
22623;DHT22;11478;51.094;7.030;2023-05-19T10:51:31;18.20;98.90
22623;DHT22;11478;51.094;7.030;2023-05-19T10:54:00;18.30;99.90
22623;DHT22;11478;51.094;7.030;2023-05-19T10:56:31;18.30;97.40
22623;DHT22;11478;51.094;7.030;2023-05-19T10:59:01;18.40;97.10
22623;DHT22;11478;51.094;7.030;2023-05-19T11:01:40;18.40;97.10
22623;DHT22;11478;51.094;7.030;2023-05-19T11:04:07;18.20;99.10
22623;DHT22;11478;51.094;7.030;2023-05-19T11:06:51;18.10;97.90
22623;DHT22;11478;51.094;7.030;2023-05-19T11:09:17;18.00;99.20
22623;DHT22;11478;51.094;7.030;2023-05-19T11:12:02;17.80;99.90
22623;DHT22;11478;51.094;7.030;2023-05-19T11:14:28;17.70;98.30
22623;DHT22;11478;51.094;7.030;2023-05-19T11:17:00;17.50;98.10
22623;DHT22;11478;51.094;7.030;2023-05-19T11:19:31;17.50;99.70
22623;DHT22;11478;51.094;7.030;2023-05-19T11:22:12;17.70;99.90
22623;DHT22;11478;51.094;7.030;2023-05-19T11:24:45;17.90;97.90
22623;DHT22;11478;51.094;7.030;2023-05-19T11:32:32;18.30;96.00
22623;DHT22;11478;51.094;7.030;2023-05-19T11:35:01;18.50;97.50
22623;DHT22;11478;51.094;7.030;2023-05-19T11:37:31;18.60;99.20
22623;DHT22;11478;51.094;7.030;2023-05-19T11:40:00;18.80;98.20
22623;DHT22;11478;51.094;7.030;2023-05-19T11:42:34;19.00;96.30
22623;DHT22;11478;51.094;7.030;2023-05-19T11:45:00;19.00;96.10
22623;DHT22;11478;51.094;7.030;2023-05-19T11:47:26;19.00;97.00
22623;DHT22;11478;51.094;7.030;2023-05-19T11:49:53;18.90;94.80
22623;DHT22;11478;51.094;7.030;2023-05-19T11:52:26;18.80;96.60
22623;DHT22;11478;51.094;7.030;2023-05-19T11:54:53;18.70;96.00
22623;DHT22;11478;51.094;7.030;2023-05-19T11:57:19;18.60;95.50
22623;DHT22;11478;51.094;7.030;2023-05-19T11:59:48;18.60;96.00
22623;DHT22;11478;51.094;7.030;2023-05-19T12:02:24;18.70;94.90
22623;DHT22;11478;51.094;7.030;2023-05-19T12:04:52;18.70;94.20
22623;DHT22;11478;51.094;7.030;2023-05-19T12:07:23;18.80;96.70
22623;DHT22;11478;51.094;7.030;2023-05-19T12:09:50;18.80;93.40
22623;DHT22;11478;51.094;7.030;2023-05-19T12:12:22;19.00;95.10
22623;DHT22;11478;51.094;7.030;2023-05-19T12:14:51;19.00;95.30
22623;DHT22;11478;51.094;7.030;2023-05-19T12:17:41;19.20;94.00
22623;DHT22;11478;51.094;7.030;2023-05-19T12:20:14;19.20;93.90
22623;DHT22;11478;51.094;7.030;2023-05-19T12:22:42;19.40;95.40
22623;DHT22;11478;51.094;7.030;2023-05-19T12:25:09;19.40;93.50
22623;DHT22;11478;51.094;7.030;2023-05-19T12:27:36;19.50;92.50
22623;DHT22;11478;51.094;7.030;2023-05-19T12:30:04;19.50;92.20
22623;DHT22;11478;51.094;7.030;2023-05-19T12:32:33;19.40;91.10
22623;DHT22;11478;51.094;7.030;2023-05-19T12:35:04;19.40;91.00
22623;DHT22;11478;51.094;7.030;2023-05-19T12:37:31;19.40;92.60
22623;DHT22;11478;51.094;7.030;2023-05-19T12:40:02;19.30;92.90
22623;DHT22;11478;51.094;7.030;2023-05-19T12:42:35;19.20;93.70
22623;DHT22;11478;51.094;7.030;2023-05-19T12:45:03;19.30;93.20
22623;DHT22;11478;51.094;7.030;2023-05-19T12:47:32;19.40;93.50
22623;DHT22;11478;51.094;7.030;2023-05-19T12:50:09;19.30;93.90
22623;DHT22;11478;51.094;7.030;2023-05-19T12:52:47;19.30;93.80
22623;DHT22;11478;51.094;7.030;2023-05-19T12:55:16;19.20;94.80
22623;DHT22;11478;51.094;7.030;2023-05-19T12:57:52;19.10;94.50
22623;DHT22;11478;51.094;7.030;2023-05-19T13:00:24;19.00;95.80
22623;DHT22;11478;51.094;7.030;2023-05-19T13:03:07;19.00;94.20
22623;DHT22;11478;51.094;7.030;2023-05-19T13:05:39;19.00;95.90
22623;DHT22;11478;51.094;7.030;2023-05-19T13:08:24;19.00;96.10
22623;DHT22;11478;51.094;7.030;2023-05-19T13:10:50;19.10;95.80
22623;DHT22;11478;51.094;7.030;2023-05-19T13:13:20;19.10;94.80
22623;DHT22;11478;51.094;7.030;2023-05-19T13:15:47;19.10;95.70
22623;DHT22;11478;51.094;7.030;2023-05-19T13:18:21;18.90;96.00
22623;DHT22;11478;51.094;7.030;2023-05-19T13:20:47;18.70;97.20
22623;DHT22;11478;51.094;7.030;2023-05-19T13:23:27;18.70;97.60
22623;DHT22;11478;51.094;7.030;2023-05-19T13:25:53;18.80;96.30
22623;DHT22;11478;51.094;7.030;2023-05-19T13:28:19;19.00;96.00
22623;DHT22;11478;51.094;7.030;2023-05-19T13:30:51;19.10;95.40
22623;DHT22;11478;51.094;7.030;2023-05-19T13:33:20;19.20;94.10
22623;DHT22;11478;51.094;7.030;2023-05-19T13:35:46;19.30;95.30
22623;DHT22;11478;51.094;7.030;2023-05-19T13:38:12;19.40;96.10
22623;DHT22;11478;51.094;7.030;2023-05-19T13:40:48;19.40;96.80
22623;DHT22;11478;51.094;7.030;2023-05-19T13:43:17;19.50;95.60
22623;DHT22;11478;51.094;7.030;2023-05-19T13:45:44;19.30;94.70
22623;DHT22;11478;51.094;7.030;2023-05-19T13:48:10;19.20;95.70
22623;DHT22;11478;51.094;7.030;2023-05-19T13:50:37;19.20;96.80
22623;DHT22;11478;51.094;7.030;2023-05-19T13:53:03;19.20;97.10
22623;DHT22;11478;51.094;7.030;2023-05-19T13:55:32;19.30;97.40
22623;DHT22;11478;51.094;7.030;2023-05-19T13:57:57;19.30;97.80
22623;DHT22;11478;51.094;7.030;2023-05-19T14:00:23;19.40;96.00
22623;DHT22;11478;51.094;7.030;2023-05-19T14:02:49;19.40;97.30
22623;DHT22;11478;51.094;7.030;2023-05-19T14:05:15;19.40;97.10
22623;DHT22;11478;51.094;7.030;2023-05-19T14:07:41;19.40;96.80
22623;DHT22;11478;51.094;7.030;2023-05-19T14:10:08;19.30;95.90
22623;DHT22;11478;51.094;7.030;2023-05-19T14:12:34;19.40;94.90
22623;DHT22;11478;51.094;7.030;2023-05-19T14:15:02;19.40;95.20
22623;DHT22;11478;51.094;7.030;2023-05-19T14:17:27;19.50;97.00
22623;DHT22;11478;51.094;7.030;2023-05-19T14:20:07;19.60;95.30
22623;DHT22;11478;51.094;7.030;2023-05-19T14:22:34;19.70;95.50
22623;DHT22;11478;51.094;7.030;2023-05-19T14:25:00;19.70;94.20
22623;DHT22;11478;51.094;7.030;2023-05-19T14:27:26;19.70;95.00
22623;DHT22;11478;51.094;7.030;2023-05-19T14:29:53;19.60;94.10
22623;DHT22;11478;51.094;7.030;2023-05-19T14:32:19;19.70;95.60
22623;DHT22;11478;51.094;7.030;2023-05-19T14:34:46;19.70;94.20
22623;DHT22;11478;51.094;7.030;2023-05-19T14:37:12;19.70;94.20
22623;DHT22;11478;51.094;7.030;2023-05-19T14:39:38;19.80;93.90
22623;DHT22;11478;51.094;7.030;2023-05-19T14:42:04;19.90;95.90
22623;DHT22;11478;51.094;7.030;2023-05-19T14:44:30;19.80;95.10
22623;DHT22;11478;51.094;7.030;2023-05-19T14:47:01;19.90;92.90
22623;DHT22;11478;51.094;7.030;2023-05-19T14:49:26;19.90;92.80
22623;DHT22;11478;51.094;7.030;2023-05-19T14:51:53;19.80;94.60
22623;DHT22;11478;51.094;7.030;2023-05-19T14:54:18;19.80;94.10
22623;DHT22;11478;51.094;7.030;2023-05-19T14:56:48;19.90;96.70
22623;DHT22;11478;51.094;7.030;2023-05-19T14:59:14;20.00;93.50
22623;DHT22;11478;51.094;7.030;2023-05-19T15:01:40;19.90;93.10
22623;DHT22;11478;51.094;7.030;2023-05-19T15:04:06;19.90;93.60
22623;DHT22;11478;51.094;7.030;2023-05-19T15:06:33;19.80;93.30
22623;DHT22;11478;51.094;7.030;2023-05-19T15:08:58;19.90;93.20
22623;DHT22;11478;51.094;7.030;2023-05-19T15:11:31;19.80;93.90
22623;DHT22;11478;51.094;7.030;2023-05-19T15:13:57;19.70;93.20
22623;DHT22;11478;51.094;7.030;2023-05-19T15:16:26;19.70;95.30
22623;DHT22;11478;51.094;7.030;2023-05-19T15:18:52;19.80;92.30
22623;DHT22;11478;51.094;7.030;2023-05-19T15:21:21;19.90;93.40
22623;DHT22;11478;51.094;7.030;2023-05-19T15:23:50;20.00;94.90
22623;DHT22;11478;51.094;7.030;2023-05-19T15:26:22;20.00;93.10
22623;DHT22;11478;51.094;7.030;2023-05-19T15:28:51;20.00;92.40
22623;DHT22;11478;51.094;7.030;2023-05-19T15:31:34;20.00;92.50
22623;DHT22;11478;51.094;7.030;2023-05-19T15:44:34;19.80;93.60
22623;DHT22;11478;51.094;7.030;2023-05-19T15:47:01;19.80;91.90
22623;DHT22;11478;51.094;7.030;2023-05-19T15:49:29;19.80;92.20
22623;DHT22;11478;51.094;7.030;2023-05-19T15:51:55;19.80;92.50
22623;DHT22;11478;51.094;7.030;2023-05-19T15:54:26;19.80;92.40
22623;DHT22;11478;51.094;7.030;2023-05-19T15:56:59;19.80;92.40
22623;DHT22;11478;51.094;7.030;2023-05-19T15:59:52;19.90;93.30
22623;DHT22;11478;51.094;7.030;2023-05-19T16:02:29;19.90;92.40
22623;DHT22;11478;51.094;7.030;2023-05-19T16:04:56;19.90;93.50
22623;DHT22;11478;51.094;7.030;2023-05-19T16:07:25;19.90;90.60
22623;DHT22;11478;51.094;7.030;2023-05-19T16:09:52;19.90;91.90
22623;DHT22;11478;51.094;7.030;2023-05-19T16:12:22;19.90;93.70
22623;DHT22;11478;51.094;7.030;2023-05-19T16:15:02;19.90;94.40
22623;DHT22;11478;51.094;7.030;2023-05-19T16:17:29;19.90;92.90
22623;DHT22;11478;51.094;7.030;2023-05-19T16:20:02;20.00;92.10
22623;DHT22;11478;51.094;7.030;2023-05-19T16:22:28;20.00;93.50
22623;DHT22;11478;51.094;7.030;2023-05-19T16:24:58;20.00;93.20
22623;DHT22;11478;51.094;7.030;2023-05-19T16:27:24;20.00;93.10
22623;DHT22;11478;51.094;7.030;2023-05-19T16:29:54;20.00;93.10
22623;DHT22;11478;51.094;7.030;2023-05-19T16:32:31;20.00;91.30